createdAt,value
2022-12-03T00:01:14.408Z,58.87
2022-12-03T00:03:41.639Z,58.61
2022-12-03T00:06:08.839Z,58.71
2022-12-03T00:08:35.832Z,58.50
2022-12-03T00:11:02.960Z,58.94
2022-12-03T00:13:30.025Z,58.80
2022-12-03T00:15:57.083Z,59.34
2022-12-03T00:18:24.100Z,59.09
2022-12-03T00:20:51.017Z,58.88
2022-12-03T00:23:17.974Z,58.44
2022-12-03T00:25:47.321Z,58.04
2022-12-03T00:28:14.501Z,58.78
2022-12-03T00:30:41.750Z,58.19
2022-12-03T00:33:09.130Z,58.48
2022-12-03T00:35:36.432Z,57.71
2022-12-03T00:38:03.510Z,56.94
2022-12-03T00:40:30.471Z,56.69
2022-12-03T00:42:57.673Z,56.87
2022-12-03T00:45:24.731Z,56.57
2022-12-03T00:47:51.624Z,57.06
2022-12-03T00:50:18.732Z,56.65
2022-12-03T00:52:45.713Z,56.12
2022-12-03T00:55:12.738Z,56.09
2022-12-03T00:57:39.900Z,56.59
2022-12-03T01:00:07.634Z,55.70
2022-12-03T01:02:34.743Z,55.65
2022-12-03T01:05:01.934Z,57.05
2022-12-03T01:07:31.473Z,55.96
2022-12-03T01:09:58.603Z,56.36
2022-12-03T01:12:25.525Z,57.61
2022-12-03T01:14:52.956Z,56.94
2022-12-03T01:17:20.229Z,56.50
2022-12-03T01:19:48.636Z,58.22
2022-12-03T01:22:15.805Z,58.24
2022-12-03T01:24:42.816Z,58.82
2022-12-03T01:27:09.791Z,59.64
2022-12-03T01:29:36.732Z,59.88
2022-12-03T01:32:19.625Z,59.63
2022-12-03T01:34:54.898Z,59.37
2022-12-03T01:37:25.430Z,59.05
2022-12-03T01:39:54.797Z,59.53
2022-12-03T01:42:25.885Z,59.51
2022-12-03T01:44:56.570Z,58.72
2022-12-03T01:47:31.269Z,59.15
2022-12-03T01:50:27.417Z,59.32
2022-12-03T01:52:58.440Z,59.58
2022-12-03T01:55:28.311Z,60.00
2022-12-03T01:57:59.560Z,59.69
2022-12-03T02:00:28.018Z,60.44
2022-12-03T02:03:02.190Z,60.38
2022-12-03T02:05:32.035Z,59.58
2022-12-03T02:08:01.562Z,59.96
2022-12-03T02:10:32.801Z,60.76
2022-12-03T02:13:10.875Z,60.56
2022-12-03T02:15:40.540Z,60.83
2022-12-03T02:18:09.058Z,61.12
2022-12-03T02:20:52.024Z,61.15
2022-12-03T02:23:31.653Z,60.31
2022-12-03T02:25:58.647Z,60.33
2022-12-03T02:28:25.561Z,60.07
2022-12-03T02:30:52.489Z,60.25
2022-12-03T02:33:19.573Z,60.27
2022-12-03T02:35:46.466Z,60.60
2022-12-03T02:38:39.810Z,60.59
2022-12-03T02:41:10.434Z,60.14
2022-12-03T02:43:38.388Z,60.05
2022-12-03T02:46:07.980Z,60.03
2022-12-03T02:48:37.818Z,60.09
2022-12-03T02:51:08.782Z,60.25
2022-12-03T02:53:42.729Z,61.27
2022-12-03T02:56:12.254Z,60.84
2022-12-03T02:58:41.731Z,60.81
2022-12-03T03:01:09.719Z,60.51
2022-12-03T03:03:38.060Z,60.18
2022-12-03T03:06:07.195Z,60.02
2022-12-03T03:08:35.268Z,59.12
2022-12-03T03:11:02.867Z,59.93
2022-12-03T03:13:32.618Z,59.81
2022-12-03T03:16:00.015Z,59.99
2022-12-03T03:18:27.040Z,59.71
2022-12-03T03:20:54.120Z,59.59
2022-12-03T03:23:23.757Z,59.60
2022-12-03T03:26:01.939Z,60.28
2022-12-03T03:28:30.885Z,60.16
2022-12-03T03:31:00.797Z,59.84
2022-12-03T03:33:30.166Z,59.70
2022-12-03T03:36:00.614Z,59.34
2022-12-03T03:38:29.878Z,59.21
2022-12-03T03:40:59.705Z,59.32
2022-12-03T03:43:27.281Z,59.80
2022-12-03T03:45:54.813Z,60.60
2022-12-03T03:48:22.559Z,60.67
2022-12-03T03:50:51.010Z,59.89
2022-12-03T03:53:19.815Z,61.06
2022-12-03T03:55:47.137Z,60.96
2022-12-03T03:58:14.302Z,60.56
2022-12-03T04:00:46.815Z,61.11
2022-12-03T04:03:14.112Z,60.66
2022-12-03T04:05:41.131Z,60.21
2022-12-03T04:08:08.178Z,59.89
2022-12-03T04:10:53.650Z,60.38
2022-12-03T04:13:20.718Z,60.06
2022-12-03T04:15:48.030Z,59.88
2022-12-03T04:18:34.204Z,59.69
2022-12-03T04:21:30.218Z,59.15
2022-12-03T04:23:57.341Z,59.41
2022-12-03T04:26:43.137Z,59.41
2022-12-03T04:29:10.280Z,59.01
2022-12-03T04:31:56.625Z,58.98
2022-12-03T04:34:42.666Z,58.96
2022-12-03T04:37:09.882Z,58.58
2022-12-03T04:39:37.030Z,58.27
2022-12-03T04:42:05.905Z,58.66
2022-12-03T04:44:33.746Z,57.99
2022-12-03T04:47:07.215Z,58.36
2022-12-03T04:49:36.198Z,58.24
2022-12-03T04:52:03.206Z,59.82
2022-12-03T04:54:30.357Z,60.02
2022-12-03T04:56:57.407Z,60.03
2022-12-03T04:59:25.644Z,60.38
2022-12-03T05:01:52.736Z,61.31
2022-12-03T05:04:19.867Z,61.42
2022-12-03T05:06:46.877Z,60.83
2022-12-03T05:09:13.939Z,61.17
2022-12-03T05:11:41.770Z,62.06
2022-12-03T05:14:09.403Z,62.21
2022-12-03T05:16:36.880Z,62.44
2022-12-03T05:19:04.899Z,61.46
2022-12-03T05:21:31.961Z,62.08
2022-12-03T05:23:59.038Z,62.74
2022-12-03T05:26:26.137Z,62.15
2022-12-03T05:28:53.145Z,61.79
2022-12-03T05:31:20.317Z,62.26
2022-12-03T05:33:47.450Z,61.75
2022-12-03T05:36:14.542Z,61.16
2022-12-03T05:38:41.588Z,61.84
2022-12-03T05:41:28.594Z,61.55
2022-12-03T05:43:55.714Z,61.58
2022-12-03T05:46:23.166Z,61.05
2022-12-03T05:48:50.372Z,60.63
2022-12-03T05:51:17.276Z,61.78
2022-12-03T05:53:44.341Z,61.53
2022-12-03T05:56:11.338Z,61.73
2022-12-03T05:58:38.677Z,62.79
2022-12-03T06:01:05.705Z,62.09
2022-12-03T06:03:32.842Z,62.27
2022-12-03T06:06:00.003Z,61.92
2022-12-03T06:08:26.968Z,62.66
2022-12-03T06:10:54.068Z,61.53
2022-12-03T06:13:20.946Z,62.45
2022-12-03T06:15:47.984Z,61.80
2022-12-03T06:18:15.083Z,62.32
2022-12-03T06:20:42.023Z,62.66
2022-12-03T06:23:09.265Z,62.31
2022-12-03T06:25:36.227Z,62.23
2022-12-03T06:28:03.571Z,61.69
2022-12-03T06:30:30.608Z,62.56
2022-12-03T06:32:57.966Z,61.58
2022-12-03T06:35:24.961Z,61.24
2022-12-03T06:37:51.916Z,60.97
2022-12-03T06:40:19.382Z,60.65
2022-12-03T06:42:46.466Z,59.69
2022-12-03T06:45:13.439Z,59.75
2022-12-03T06:47:40.455Z,59.44
2022-12-03T06:50:08.768Z,57.67
2022-12-03T06:52:36.238Z,57.29
2022-12-03T06:55:03.742Z,57.51
2022-12-03T06:57:31.224Z,57.40
2022-12-03T06:59:58.306Z,57.20
2022-12-03T07:02:25.326Z,56.76
2022-12-03T07:04:52.509Z,56.21
2022-12-03T07:07:19.576Z,56.50
2022-12-03T07:09:46.603Z,56.25
2022-12-03T07:12:13.574Z,55.31
2022-12-03T07:14:40.599Z,54.89
2022-12-03T07:17:07.545Z,55.47
2022-12-03T07:19:34.544Z,56.11
2022-12-03T07:22:01.615Z,56.21
2022-12-03T07:24:29.002Z,55.86
2022-12-03T07:26:56.078Z,56.25
2022-12-03T07:29:23.127Z,55.22
2022-12-03T07:31:50.241Z,55.59
2022-12-03T07:34:17.331Z,54.95
2022-12-03T07:36:44.555Z,54.82
2022-12-03T07:39:11.500Z,55.83
2022-12-03T07:41:38.406Z,54.74
2022-12-03T07:44:10.857Z,55.19
2022-12-03T07:46:42.411Z,56.25
2022-12-03T07:49:09.880Z,55.46
2022-12-03T07:51:36.983Z,55.91
2022-12-03T07:54:04.486Z,56.19
2022-12-03T07:56:31.408Z,56.23
2022-12-03T07:59:01.767Z,57.36
2022-12-03T08:01:28.880Z,57.50
2022-12-03T08:03:56.118Z,58.27
2022-12-03T08:06:23.619Z,58.35
2022-12-03T08:08:50.717Z,58.16
2022-12-03T08:11:17.673Z,58.99
2022-12-03T08:13:44.691Z,59.02
2022-12-03T08:16:24.606Z,57.88
2022-12-03T08:18:58.420Z,58.38
2022-12-03T08:21:36.796Z,58.45
2022-12-03T08:24:30.456Z,58.05
2022-12-03T08:26:57.557Z,57.50
2022-12-03T08:29:24.768Z,57.12
2022-12-03T08:31:55.330Z,57.08
2022-12-03T08:34:26.600Z,56.11
2022-12-03T08:37:17.265Z,56.43
2022-12-03T08:40:04.610Z,57.55
2022-12-03T08:43:01.832Z,58.08
2022-12-03T08:45:45.102Z,59.17
2022-12-03T08:48:34.094Z,58.54
2022-12-03T08:51:25.618Z,58.03
2022-12-03T08:54:15.966Z,58.39
2022-12-03T08:56:48.544Z,58.68
2022-12-03T08:59:26.168Z,57.94
2022-12-03T09:02:01.268Z,57.10
2022-12-03T09:04:53.370Z,56.37
2022-12-03T09:07:22.541Z,55.94
2022-12-03T09:10:00.225Z,55.18
2022-12-03T09:12:32.869Z,55.00
2022-12-03T09:15:09.419Z,55.80
2022-12-03T09:17:43.816Z,56.26
2022-12-03T09:20:16.163Z,56.53
2022-12-03T09:22:43.430Z,56.24
2022-12-03T09:25:10.718Z,58.68
2022-12-03T09:27:37.802Z,57.25
2022-12-03T09:30:05.786Z,58.64
2022-12-03T09:32:32.845Z,57.84
2022-12-03T09:34:59.898Z,57.29
2022-12-03T09:37:27.070Z,57.47
2022-12-03T09:39:54.056Z,56.78
2022-12-03T09:42:21.039Z,56.83
2022-12-03T09:44:48.092Z,57.25
2022-12-03T09:47:15.602Z,58.24
2022-12-03T09:49:45.506Z,58.40
2022-12-03T09:52:26.753Z,57.84
2022-12-03T09:54:55.256Z,57.35
2022-12-03T09:57:22.482Z,57.90
2022-12-03T09:59:49.455Z,60.03
2022-12-03T10:02:25.466Z,60.38
2022-12-03T10:04:53.780Z,60.14
2022-12-03T10:07:25.361Z,59.90
2022-12-03T10:09:52.936Z,60.08
2022-12-03T10:12:24.828Z,59.83
2022-12-03T10:14:53.478Z,59.71
2022-12-03T10:17:20.746Z,60.43
2022-12-03T10:19:48.447Z,60.01
2022-12-03T10:22:15.501Z,60.90
2022-12-03T10:24:44.828Z,61.54
2022-12-03T10:27:38.560Z,60.76
2022-12-03T10:30:16.144Z,61.16
2022-12-03T10:32:47.027Z,60.60
2022-12-03T10:35:41.291Z,60.12
2022-12-03T10:38:18.741Z,60.87
2022-12-03T10:45:24.925Z,61.08
2022-12-03T10:48:25.529Z,61.66
2022-12-03T10:51:03.998Z,61.21
2022-12-03T10:53:33.201Z,60.76
2022-12-03T10:56:14.051Z,61.54
2022-12-03T10:58:43.155Z,61.67
2022-12-03T11:01:25.004Z,61.36
2022-12-03T11:03:53.255Z,61.89
2022-12-03T11:06:36.132Z,62.89
2022-12-03T11:09:08.783Z,62.55
2022-12-03T11:11:37.111Z,62.09
2022-12-03T11:14:05.708Z,61.82
2022-12-03T11:16:41.953Z,61.60
2022-12-03T11:19:20.829Z,61.94
2022-12-03T11:22:05.967Z,62.58
2022-12-03T11:24:35.026Z,62.82
2022-12-03T11:27:06.180Z,63.80
2022-12-03T11:29:51.739Z,63.47
2022-12-03T11:32:45.308Z,63.77
2022-12-03T11:42:38.444Z,65.35
2022-12-03T11:49:00.427Z,64.88
2022-12-03T11:51:26.107Z,65.21
2022-12-03T11:53:56.381Z,65.14
2022-12-03T11:56:29.830Z,64.83
2022-12-03T11:59:06.560Z,64.31
2022-12-03T12:01:43.966Z,64.11
2022-12-03T12:04:30.754Z,65.09
2022-12-03T12:07:02.037Z,65.49
2022-12-03T12:09:53.441Z,65.07
2022-12-03T12:13:01.726Z,64.41
2022-12-03T12:15:47.368Z,63.71
2022-12-03T12:18:55.191Z,64.69
2022-12-03T12:21:50.861Z,65.48
2022-12-03T12:24:53.774Z,65.52
2022-12-03T12:27:46.159Z,65.88
2022-12-03T12:34:20.783Z,66.64
2022-12-03T12:36:48.926Z,67.29
2022-12-03T12:39:19.642Z,67.15
2022-12-03T12:41:51.543Z,66.72
2022-12-03T12:44:23.355Z,67.57
2022-12-03T12:46:55.947Z,67.71
2022-12-03T12:49:29.623Z,68.27
2022-12-03T12:51:56.701Z,68.41
2022-12-03T12:54:29.850Z,69.08
2022-12-03T12:56:58.683Z,68.34
2022-12-03T13:03:59.562Z,68.74
2022-12-03T13:09:26.279Z,69.29
2022-12-03T13:11:59.417Z,69.45
2022-12-03T13:14:37.990Z,69.59
2022-12-03T13:17:29.276Z,68.96
2022-12-03T13:20:17.587Z,70.18
2022-12-03T13:22:45.806Z,70.00
2022-12-03T13:25:59.293Z,70.34
2022-12-03T13:28:24.875Z,69.93
2022-12-03T13:30:51.923Z,70.08
2022-12-03T13:33:33.363Z,70.77
2022-12-03T13:36:03.505Z,70.18
2022-12-03T13:38:30.675Z,70.97
2022-12-03T13:41:02.994Z,71.08
2022-12-03T13:43:32.625Z,70.84
2022-12-03T13:46:02.429Z,70.89
2022-12-03T13:49:02.034Z,70.81
2022-12-03T13:51:37.991Z,70.51
2022-12-03T13:54:48.810Z,70.30
2022-12-03T13:57:23.591Z,70.20
2022-12-03T14:00:06.262Z,70.14
2022-12-03T14:02:42.915Z,70.07
2022-12-03T14:05:46.432Z,70.05
2022-12-03T14:08:15.855Z,69.74
2022-12-03T14:10:46.005Z,70.23
2022-12-03T14:13:17.073Z,70.39
2022-12-03T14:15:57.304Z,70.53
2022-12-03T14:18:34.961Z,69.87
2022-12-03T14:23:53.730Z,70.06
2022-12-03T14:26:20.833Z,69.85
2022-12-03T14:28:47.841Z,70.70
2022-12-03T14:31:15.042Z,70.65
2022-12-03T14:33:42.141Z,70.63
2022-12-03T14:36:09.823Z,70.55
2022-12-03T14:38:38.793Z,70.67
2022-12-03T14:41:28.981Z,70.66
2022-12-03T14:43:56.028Z,71.24
2022-12-03T14:46:26.097Z,71.22
2022-12-03T14:48:54.858Z,70.48
2022-12-03T14:51:31.192Z,70.19
2022-12-03T14:54:01.461Z,70.73
2022-12-03T14:56:29.115Z,69.82
2022-12-03T14:58:56.150Z,69.87
2022-12-03T15:01:23.865Z,69.15
2022-12-03T15:03:51.497Z,69.67
2022-12-03T15:06:18.745Z,70.10
2022-12-03T15:08:48.933Z,70.21
2022-12-03T15:11:19.425Z,70.45
2022-12-03T15:14:36.170Z,70.43
2022-12-03T15:18:01.115Z,70.78
2022-12-03T15:20:29.358Z,71.04
2022-12-03T15:22:57.825Z,71.44
2022-12-03T15:25:28.866Z,70.38
2022-12-03T15:27:55.993Z,71.00
2022-12-03T15:30:23.582Z,70.74
2022-12-03T15:32:50.759Z,70.41
2022-12-03T15:35:20.637Z,71.04
2022-12-03T15:37:47.598Z,70.58
2022-12-03T15:40:15.988Z,70.30
2022-12-03T15:42:43.143Z,70.58
2022-12-03T15:45:14.922Z,70.57
2022-12-03T15:47:42.372Z,70.33
2022-12-03T15:50:09.934Z,71.28
2022-12-03T15:52:36.899Z,69.94
2022-12-03T15:55:04.127Z,70.28
2022-12-03T15:57:31.358Z,70.33
2022-12-03T15:59:58.382Z,70.58
2022-12-03T16:02:25.540Z,70.39
2022-12-03T16:04:55.454Z,70.58
2022-12-03T16:07:22.471Z,70.11
2022-12-03T16:09:49.545Z,70.08
2022-12-03T16:12:16.474Z,70.43
2022-12-03T16:14:43.516Z,70.63
2022-12-03T16:17:10.511Z,70.79
2022-12-03T16:19:37.482Z,70.20
2022-12-03T16:22:04.648Z,71.14
2022-12-03T16:24:31.848Z,70.41
2022-12-03T16:26:59.153Z,69.56
2022-12-03T16:29:31.798Z,69.63
2022-12-03T16:31:59.043Z,69.26
2022-12-03T16:34:26.030Z,69.11
2022-12-03T16:37:00.577Z,68.95
2022-12-03T16:39:27.795Z,68.80
2022-12-03T16:41:57.091Z,68.99
2022-12-03T16:44:35.854Z,68.33
2022-12-03T16:47:03.087Z,68.29
2022-12-03T16:49:33.085Z,66.44
2022-12-03T16:51:59.972Z,65.69
2022-12-03T16:54:26.997Z,65.80
2022-12-03T16:56:54.108Z,65.29
2022-12-03T16:59:21.258Z,65.83
2022-12-03T17:01:48.583Z,65.83
2022-12-03T17:04:16.091Z,65.33
2022-12-03T17:06:45.884Z,65.46
2022-12-03T17:09:12.885Z,65.61
2022-12-03T17:11:40.034Z,65.48
2022-12-03T17:14:10.320Z,65.39
2022-12-03T17:16:37.304Z,65.08
2022-12-03T17:19:04.378Z,65.81
2022-12-03T17:21:35.278Z,65.48
2022-12-03T17:24:05.764Z,65.09
2022-12-03T17:26:32.751Z,64.93
2022-12-03T17:29:02.758Z,63.95
2022-12-03T17:31:42.291Z,64.28
2022-12-03T17:34:12.360Z,64.42
2022-12-03T17:36:43.016Z,64.21
2022-12-03T17:39:10.913Z,64.07
2022-12-03T17:41:38.152Z,64.32
2022-12-03T17:44:09.891Z,64.27
2022-12-03T17:46:38.980Z,64.57
2022-12-03T17:49:06.346Z,64.42
2022-12-03T17:51:33.537Z,64.01
2022-12-03T17:54:03.770Z,63.73
2022-12-03T17:56:35.249Z,64.27
2022-12-03T17:59:15.623Z,64.07
2022-12-03T18:01:48.138Z,64.72
2022-12-03T18:04:17.845Z,64.86
2022-12-03T18:06:51.656Z,65.57
2022-12-03T18:09:29.163Z,65.29
2022-12-03T18:12:05.349Z,64.95
2022-12-03T18:17:22.067Z,66.28
2022-12-03T18:19:55.102Z,65.84
2022-12-03T18:22:22.356Z,65.62
2022-12-03T18:24:51.896Z,65.46
2022-12-03T18:27:23.913Z,65.86
2022-12-03T18:29:54.670Z,66.01
2022-12-03T18:32:29.302Z,66.63
2022-12-03T18:35:09.798Z,67.00
2022-12-03T18:37:38.139Z,67.28
2022-12-03T18:40:16.564Z,66.67
2022-12-03T18:42:46.677Z,66.87
2022-12-03T18:45:17.115Z,66.32
2022-12-03T18:47:47.311Z,66.97
2022-12-03T18:50:15.435Z,66.53
2022-12-03T18:52:45.726Z,66.50
2022-12-03T18:55:18.964Z,66.41
2022-12-03T18:57:48.657Z,66.27
2022-12-03T19:00:16.161Z,66.15
2022-12-03T19:03:02.432Z,66.32
2022-12-03T19:05:32.905Z,66.02
2022-12-03T19:08:00.494Z,65.87
2022-12-03T19:10:28.000Z,66.36
2022-12-03T19:12:55.099Z,66.88
2022-12-03T19:15:25.175Z,65.96
2022-12-03T19:17:52.269Z,66.00
2022-12-03T19:20:19.575Z,66.78
2022-12-03T19:22:46.667Z,65.99
2022-12-03T19:25:13.598Z,66.28
2022-12-03T19:27:40.636Z,66.06
2022-12-03T19:30:08.394Z,65.34
2022-12-03T19:32:35.813Z,65.22
2022-12-03T19:35:05.393Z,65.41
2022-12-03T19:37:36.145Z,65.06
2022-12-03T19:40:03.416Z,65.02
2022-12-03T19:42:31.351Z,65.32
2022-12-03T19:44:58.403Z,65.65
2022-12-03T19:47:28.333Z,65.12
2022-12-03T19:49:56.400Z,65.07
2022-12-03T19:52:24.935Z,65.38
2022-12-03T19:54:51.959Z,64.93
2022-12-03T19:57:23.536Z,64.60
2022-12-03T19:59:50.869Z,64.98
2022-12-03T20:02:17.989Z,64.80
2022-12-03T20:04:44.995Z,65.10
2022-12-03T20:07:14.737Z,65.47
2022-12-03T20:09:41.678Z,65.62
2022-12-03T20:12:28.559Z,65.75
2022-12-03T20:14:58.624Z,65.87
2022-12-03T20:17:25.496Z,65.53
2022-12-03T20:19:55.539Z,65.34
2022-12-03T20:22:22.807Z,65.02
2022-12-03T20:24:49.697Z,64.74
2022-12-03T20:27:22.480Z,64.68
2022-12-03T20:29:50.000Z,64.83
2022-12-03T20:32:17.213Z,64.30
2022-12-03T20:34:45.100Z,64.42
2022-12-03T20:37:15.134Z,64.67
2022-12-03T20:39:42.138Z,64.36
2022-12-03T20:42:10.573Z,63.54
2022-12-03T20:44:38.527Z,63.86
2022-12-03T20:47:05.662Z,63.61
2022-12-03T20:49:33.038Z,63.51
2022-12-03T20:52:02.852Z,63.23
2022-12-03T20:54:37.317Z,63.34
2022-12-03T20:57:06.580Z,62.79
2022-12-03T20:59:36.595Z,63.13
2022-12-03T21:02:08.883Z,63.29
2022-12-03T21:04:38.765Z,63.56
2022-12-03T21:07:05.719Z,63.91
2022-12-03T21:09:32.621Z,63.46
2022-12-03T21:11:59.535Z,64.15
2022-12-03T21:14:29.411Z,63.79
2022-12-03T21:17:08.553Z,63.94
2022-12-03T21:19:36.587Z,64.32
2022-12-03T21:22:07.217Z,64.15
2022-12-03T21:24:34.756Z,64.04
2022-12-03T21:27:01.883Z,63.95
2022-12-03T21:29:28.847Z,64.17
2022-12-03T21:31:55.802Z,64.18
2022-12-03T21:34:22.703Z,63.08
2022-12-03T21:36:49.827Z,62.81
2022-12-03T21:39:19.830Z,62.96
2022-12-03T21:42:35.094Z,63.01
2022-12-03T21:44:38.545Z,62.33
2022-12-03T21:47:11.763Z,62.66
2022-12-03T21:49:41.233Z,63.23
2022-12-03T21:52:08.208Z,63.01
2022-12-03T21:54:35.141Z,63.08
2022-12-03T21:57:02.107Z,63.64
2022-12-03T21:59:29.138Z,62.98
2022-12-03T22:01:56.195Z,63.11
2022-12-03T22:04:23.121Z,63.37
2022-12-03T22:06:50.038Z,62.58
2022-12-03T22:09:26.159Z,62.62
2022-12-03T22:12:00.837Z,62.96
2022-12-03T22:14:28.949Z,62.56
2022-12-03T22:16:59.538Z,62.46
2022-12-03T22:19:30.914Z,68.68
2022-12-03T22:22:00.796Z,64.25
2022-12-03T22:24:27.678Z,66.99
2022-12-03T22:26:56.869Z,61.55
2022-12-03T22:29:24.340Z,61.10
2022-12-03T22:31:51.658Z,61.36
2022-12-03T22:34:21.945Z,61.36
2022-12-03T22:36:52.726Z,61.46
2022-12-03T22:39:24.939Z,61.92
2022-12-03T22:41:52.103Z,62.54
2022-12-03T22:44:19.721Z,62.40
2022-12-03T22:46:46.786Z,62.33
2022-12-03T22:49:17.696Z,63.50
2022-12-03T22:51:49.431Z,64.30
2022-12-03T22:54:22.320Z,63.97
2022-12-03T22:56:51.385Z,64.14
2022-12-03T22:59:18.855Z,64.13
2022-12-03T23:01:49.095Z,64.12
2022-12-03T23:04:16.434Z,63.45
2022-12-03T23:06:44.002Z,63.79
2022-12-03T23:09:11.072Z,63.25
2022-12-03T23:11:40.692Z,63.25
2022-12-03T23:14:07.912Z,63.59
2022-12-03T23:16:34.914Z,63.31
2022-12-03T23:19:08.012Z,64.07
2022-12-03T23:21:40.020Z,64.06
2022-12-03T23:24:09.091Z,63.98
2022-12-03T23:26:38.108Z,64.10
2022-12-03T23:29:08.887Z,64.45
2022-12-03T23:31:39.693Z,63.91
2022-12-03T23:34:08.098Z,63.64
2022-12-03T23:36:35.626Z,64.30
2022-12-03T23:39:04.816Z,64.78
2022-12-03T23:41:31.889Z,64.52
2022-12-03T23:43:59.525Z,64.32
2022-12-03T23:46:27.860Z,63.98
2022-12-03T23:48:55.394Z,63.64
2022-12-03T23:56:10.554Z,63.95
2022-12-03T23:58:38.794Z,63.44
